createdAt,value
2018-09-19T00:00:12.051Z,4.63
2018-09-19T00:02:41.724Z,4.90
2018-09-19T00:05:10.785Z,5.00
2018-09-19T00:07:39.863Z,4.87
2018-09-19T00:10:09.014Z,4.90
2018-09-19T00:12:38.280Z,4.10
2018-09-19T00:15:07.344Z,4.80
2018-09-19T00:17:37.066Z,5.10
2018-09-19T00:20:06.308Z,4.50
2018-09-19T00:22:35.283Z,5.00
2018-09-19T00:25:04.349Z,5.23
2018-09-19T00:27:33.463Z,5.27
2018-09-19T00:30:02.601Z,5.00
2018-09-19T00:32:31.641Z,4.47
2018-09-19T00:35:00.676Z,4.90
2018-09-19T00:37:29.591Z,4.47
2018-09-19T00:39:58.742Z,5.20
2018-09-19T00:42:27.808Z,4.53
2018-09-19T00:44:56.852Z,5.00
2018-09-19T00:47:25.844Z,5.77
2018-09-19T00:49:54.939Z,4.77
2018-09-19T00:52:23.957Z,4.80
2018-09-19T00:54:54.158Z,4.97
2018-09-19T00:57:23.210Z,4.83
2018-09-19T00:59:52.252Z,4.83
2018-09-19T01:02:21.241Z,4.30
2018-09-19T01:04:50.366Z,4.70
2018-09-19T01:07:19.409Z,4.70
2018-09-19T01:09:48.391Z,4.40
2018-09-19T01:12:17.469Z,5.10
2018-09-19T01:14:46.482Z,4.60
2018-09-19T01:17:15.586Z,5.03
2018-09-19T01:19:44.673Z,5.33
2018-09-19T01:22:13.746Z,4.50
2018-09-19T01:24:42.784Z,5.43
2018-09-19T01:27:11.921Z,3.80
2018-09-19T01:29:40.961Z,4.50
2018-09-19T01:32:09.983Z,4.33
2018-09-19T01:34:39.034Z,4.97
2018-09-19T01:37:08.107Z,4.60
2018-09-19T01:39:37.163Z,5.20
2018-09-19T01:42:06.421Z,4.83
2018-09-19T01:44:35.587Z,5.13
2018-09-19T01:47:04.583Z,5.23
2018-09-19T01:49:33.658Z,4.60
2018-09-19T01:52:02.722Z,5.20
2018-09-19T01:54:31.785Z,4.27
2018-09-19T01:57:00.864Z,5.10
2018-09-19T01:59:29.922Z,5.30
2018-09-19T02:01:59.436Z,5.70
2018-09-19T02:04:28.458Z,4.63
2018-09-19T02:06:57.692Z,5.63
2018-09-19T02:09:27.137Z,4.43
2018-09-19T02:11:56.087Z,5.30
2018-09-19T02:14:25.182Z,5.40
2018-09-19T02:16:54.247Z,5.20
2018-09-19T02:19:23.274Z,5.40
2018-09-19T02:21:52.245Z,4.90
2018-09-19T02:24:21.295Z,4.77
2018-09-19T02:26:50.370Z,4.63
2018-09-19T02:29:19.387Z,5.10
2018-09-19T02:31:48.511Z,4.67
2018-09-19T02:34:17.687Z,5.10
2018-09-19T02:36:46.724Z,4.70
2018-09-19T02:39:15.909Z,5.10
2018-09-19T02:41:45.074Z,4.30
2018-09-19T02:44:14.300Z,6.10
2018-09-19T02:46:43.381Z,5.20
2018-09-19T02:49:12.780Z,5.20
2018-09-19T02:51:41.903Z,4.70
2018-09-19T02:54:10.924Z,5.13
2018-09-19T02:56:41.042Z,5.10
2018-09-19T02:59:09.985Z,6.40
2018-09-19T03:01:39.132Z,5.63
2018-09-19T03:04:08.353Z,6.13
2018-09-19T03:06:37.378Z,6.83
2018-09-19T03:09:07.419Z,5.50
2018-09-19T03:11:36.410Z,5.73
2018-09-19T03:14:05.503Z,5.27
2018-09-19T03:16:34.637Z,6.03
2018-09-19T03:19:03.685Z,5.30
2018-09-19T03:21:33.109Z,5.77
2018-09-19T03:24:02.534Z,6.83
2018-09-19T03:26:31.576Z,7.50
2018-09-19T03:29:00.521Z,7.43
2018-09-19T03:31:29.605Z,8.40
2018-09-19T03:33:58.715Z,7.90
2018-09-19T03:36:27.810Z,8.40
2018-09-19T03:38:56.927Z,8.53
2018-09-19T03:41:25.979Z,7.57
2018-09-19T03:43:54.907Z,6.73
2018-09-19T03:46:23.970Z,8.60
2018-09-19T03:48:53.139Z,7.20
2018-09-19T03:51:22.213Z,7.93
2018-09-19T03:53:51.267Z,8.00
2018-09-19T03:56:20.425Z,8.83
2018-09-19T03:58:49.487Z,6.80
2018-09-19T04:01:18.542Z,7.80
2018-09-19T04:03:47.720Z,7.70
2018-09-19T04:06:24.076Z,8.53
2018-09-19T04:08:53.089Z,8.77
2018-09-19T04:11:22.094Z,9.20
2018-09-19T04:13:51.262Z,9.30
2018-09-19T04:16:20.589Z,8.63
2018-09-19T04:18:49.622Z,9.70
2018-09-19T04:21:18.702Z,10.50
2018-09-19T04:23:47.951Z,10.00
2018-09-19T04:26:16.899Z,9.20
2018-09-19T04:28:46.027Z,9.60
2018-09-19T04:31:16.131Z,9.87
2018-09-19T04:33:46.344Z,9.40
2018-09-19T04:36:15.615Z,9.70
2018-09-19T04:38:44.571Z,9.30
2018-09-19T04:41:13.664Z,9.70
2018-09-19T04:43:42.686Z,9.40
2018-09-19T04:46:12.799Z,9.03
2018-09-19T04:48:41.788Z,9.50
2018-09-19T04:51:10.850Z,9.80
2018-09-19T04:53:39.871Z,10.20
2018-09-19T04:56:08.841Z,9.53
2018-09-19T04:58:37.927Z,10.40
2018-09-19T05:01:07.073Z,9.60
2018-09-19T05:03:36.186Z,10.70
2018-09-19T05:06:05.344Z,10.00
2018-09-19T05:08:34.387Z,10.37
2018-09-19T05:11:03.447Z,10.83
2018-09-19T05:13:32.593Z,10.70
2018-09-19T05:16:03.122Z,9.80
2018-09-19T05:18:32.174Z,10.40
2018-09-19T05:21:01.233Z,10.80
2018-09-19T05:23:30.348Z,11.20
2018-09-19T05:25:59.399Z,9.17
2018-09-19T05:28:29.260Z,11.40
2018-09-19T05:30:59.637Z,9.70
2018-09-19T05:33:29.661Z,9.87
2018-09-19T05:35:58.689Z,10.07
2018-09-19T05:38:27.816Z,10.17
2018-09-19T05:40:56.909Z,9.40
2018-09-19T05:43:25.946Z,9.50
2018-09-19T05:45:54.999Z,9.60
2018-09-19T05:48:24.048Z,8.83
2018-09-19T05:50:53.042Z,9.40
2018-09-19T05:53:22.038Z,9.60
2018-09-19T05:55:51.112Z,9.40
2018-09-19T05:58:20.209Z,9.00
2018-09-19T06:00:50.150Z,7.87
2018-09-19T06:03:19.101Z,8.67
2018-09-19T06:05:48.404Z,7.80
2018-09-19T06:08:17.383Z,8.40
2018-09-19T06:10:46.600Z,8.50
2018-09-19T06:13:15.868Z,7.53
2018-09-19T06:15:44.952Z,7.77
2018-09-19T06:18:13.934Z,7.20
2018-09-19T06:20:43.027Z,7.90
2018-09-19T06:23:12.277Z,7.40
2018-09-19T06:25:42.031Z,8.03
2018-09-19T06:28:11.088Z,6.43
2018-09-19T06:30:41.572Z,6.53
2018-09-19T06:33:11.933Z,6.73
2018-09-19T06:35:41.899Z,6.77
2018-09-19T06:38:11.077Z,7.67
2018-09-19T06:40:40.320Z,6.23
2018-09-19T06:43:10.211Z,6.23
2018-09-19T06:45:39.346Z,6.30
2018-09-19T06:48:08.386Z,5.40
2018-09-19T06:50:37.657Z,5.97
2018-09-19T06:53:07.543Z,6.33
2018-09-19T06:55:36.797Z,5.57
2018-09-19T06:58:06.439Z,6.70
2018-09-19T07:00:35.498Z,5.30
2018-09-19T07:03:04.750Z,5.30
2018-09-19T07:05:33.982Z,5.30
2018-09-19T07:08:03.073Z,5.93
2018-09-19T07:10:32.249Z,5.00
2018-09-19T07:13:01.883Z,4.80
2018-09-19T07:15:30.911Z,5.30
2018-09-19T07:18:00.022Z,5.67
2018-09-19T07:20:29.133Z,5.13
2018-09-19T07:22:58.219Z,4.40
2018-09-19T07:25:27.827Z,5.60
2018-09-19T07:27:56.960Z,4.50
2018-09-19T07:30:26.089Z,5.53
2018-09-19T07:32:55.343Z,5.47
2018-09-19T07:35:24.859Z,5.17
2018-09-19T07:37:54.291Z,4.47
2018-09-19T07:40:23.310Z,4.57
2018-09-19T07:42:52.408Z,4.27
2018-09-19T07:45:21.497Z,4.50
2018-09-19T07:47:50.579Z,4.63
2018-09-19T07:50:19.610Z,4.53
2018-09-19T07:52:48.807Z,4.10
2018-09-19T07:55:17.956Z,3.77
2018-09-19T07:57:47.027Z,5.07
2018-09-19T08:00:16.072Z,4.10
2018-09-19T08:02:45.216Z,4.47
2018-09-19T08:05:14.235Z,4.20
2018-09-19T08:07:43.234Z,4.00
2018-09-19T08:10:12.256Z,4.43
2018-09-19T08:12:41.269Z,4.07
2018-09-19T08:15:10.466Z,4.27
2018-09-19T08:17:39.545Z,3.50
2018-09-19T08:20:08.620Z,3.67
2018-09-19T08:22:37.688Z,3.67
2018-09-19T08:25:08.015Z,4.30
2018-09-19T08:27:37.371Z,3.00
2018-09-19T08:30:06.474Z,3.40
2018-09-19T08:32:35.536Z,4.03
2018-09-19T08:35:04.725Z,4.20
2018-09-19T08:37:33.928Z,3.57
2018-09-19T08:40:03.046Z,2.70
2018-09-19T08:42:32.332Z,3.53
2018-09-19T08:45:01.372Z,4.37
2018-09-19T08:47:30.390Z,4.00
2018-09-19T08:49:59.302Z,3.90
2018-09-19T08:52:28.467Z,3.67
2018-09-19T08:54:57.438Z,3.50
2018-09-19T08:57:26.458Z,4.07
2018-09-19T08:59:55.980Z,3.10
2018-09-19T09:02:25.068Z,3.13
2018-09-19T09:04:54.133Z,3.13
2018-09-19T09:07:23.264Z,2.90
2018-09-19T09:09:52.403Z,3.40
2018-09-19T09:12:21.622Z,3.00
2018-09-19T09:14:50.710Z,3.20
2018-09-19T09:17:19.757Z,3.10
2018-09-19T09:19:48.801Z,2.80
2018-09-19T09:22:18.517Z,3.60
2018-09-19T09:24:47.506Z,3.47
2018-09-19T09:27:16.723Z,3.23
2018-09-19T09:29:45.782Z,2.80
2018-09-19T09:34:43.107Z,2.80
2018-09-19T09:37:12.186Z,2.30
2018-09-19T09:39:41.415Z,3.47
2018-09-19T09:42:10.825Z,2.70
2018-09-19T09:44:39.982Z,2.37
2018-09-19T09:47:08.964Z,2.47
2018-09-19T09:49:38.100Z,3.00
2018-09-19T09:52:08.018Z,2.60
2018-09-19T09:54:37.351Z,2.40
2018-09-19T09:57:06.407Z,3.10
2018-09-19T09:59:35.630Z,2.27
2018-09-19T10:02:04.891Z,2.90
2018-09-19T10:04:34.037Z,3.07
2018-09-19T10:07:03.192Z,2.33
2018-09-19T10:09:32.269Z,2.63
2018-09-19T10:12:01.297Z,2.33
2018-09-19T10:14:30.395Z,2.30
2018-09-19T10:17:01.524Z,2.30
2018-09-19T10:19:30.742Z,3.30
2018-09-19T10:22:00.247Z,2.27
2018-09-19T10:24:29.384Z,2.40
2018-09-19T10:26:58.463Z,2.33
2018-09-19T10:29:27.586Z,2.23
2018-09-19T10:31:56.610Z,2.43
2018-09-19T10:34:25.693Z,2.37
2018-09-19T10:36:54.895Z,1.97
2018-09-19T10:39:24.117Z,2.40
2018-09-19T10:41:54.300Z,1.97
2018-09-19T10:44:23.423Z,2.00
2018-09-19T10:46:52.569Z,2.30
2018-09-19T10:49:22.310Z,2.60
2018-09-19T10:51:51.333Z,2.37
2018-09-19T10:54:20.433Z,2.80
2018-09-19T10:56:49.775Z,2.73
2018-09-19T10:59:18.919Z,2.50
2018-09-19T11:01:47.938Z,2.60
2018-09-19T11:04:17.025Z,2.47
2018-09-19T11:06:45.970Z,2.37
2018-09-19T11:09:15.534Z,3.00
2018-09-19T11:11:44.632Z,2.23
2018-09-19T11:14:14.707Z,2.10
2018-09-19T11:16:43.822Z,2.30
2018-09-19T11:19:12.935Z,2.10
2018-09-19T11:21:42.704Z,3.00
2018-09-19T11:24:11.886Z,3.63
2018-09-19T11:26:41.149Z,2.00
2018-09-19T11:29:10.685Z,2.43
2018-09-19T11:31:39.873Z,3.00
2018-09-19T11:34:08.887Z,2.00
2018-09-19T11:36:38.029Z,2.87
2018-09-19T11:39:10.000Z,2.30
2018-09-19T11:41:39.329Z,2.87
2018-09-19T11:44:08.755Z,2.47
2018-09-19T11:46:37.883Z,2.80
2018-09-19T11:49:09.878Z,1.80
2018-09-19T11:51:38.970Z,2.20
2018-09-19T11:54:08.000Z,2.33
2018-09-19T11:56:37.248Z,2.20
2018-09-19T11:59:06.531Z,2.30
2018-09-19T12:01:35.699Z,2.30
2018-09-19T12:04:04.757Z,2.30
2018-09-19T12:06:33.837Z,2.07
2018-09-19T12:09:02.964Z,2.27
2018-09-19T12:11:32.094Z,2.20
2018-09-19T12:14:01.159Z,1.97
2018-09-19T12:16:30.236Z,2.00
2018-09-19T12:18:59.307Z,2.27
2018-09-19T12:21:28.454Z,2.10
2018-09-19T12:23:57.564Z,2.57
2018-09-19T12:26:27.950Z,2.50
2018-09-19T12:28:56.933Z,1.97
2018-09-19T12:31:26.062Z,2.57
2018-09-19T12:33:55.491Z,2.27
2018-09-19T12:36:25.866Z,2.10
2018-09-19T12:38:55.572Z,1.87
2018-09-19T12:41:24.730Z,2.30
2018-09-19T12:43:54.086Z,2.97
2018-09-19T12:46:24.713Z,2.30
2018-09-19T12:48:54.583Z,2.30
2018-09-19T12:51:23.571Z,2.77
2018-09-19T12:53:52.594Z,2.30
2018-09-19T12:56:22.815Z,2.37
2018-09-19T12:58:51.879Z,2.30
2018-09-19T13:01:20.935Z,2.77
2018-09-19T13:03:50.023Z,3.00
2018-09-19T13:06:19.085Z,6.30
2018-09-19T13:08:48.195Z,5.30
2018-09-19T13:11:17.326Z,2.57
2018-09-19T13:13:47.915Z,2.40
2018-09-19T13:16:17.891Z,3.37
2018-09-19T13:18:47.078Z,2.90
2018-09-19T13:21:16.199Z,2.80
2018-09-19T13:23:45.347Z,3.03
2018-09-19T13:26:14.444Z,3.00
2018-09-19T13:28:44.384Z,2.90
2018-09-19T13:31:15.099Z,3.30
2018-09-19T13:33:44.167Z,2.73
2018-09-19T13:36:13.705Z,2.60
2018-09-19T13:38:42.832Z,2.70
2018-09-19T13:41:12.146Z,3.10
2018-09-19T13:43:41.262Z,2.40
2018-09-19T13:46:10.812Z,2.77
2018-09-19T13:48:43.066Z,3.40
2018-09-19T13:51:16.055Z,2.73
2018-09-19T13:53:45.182Z,3.17
2018-09-19T13:56:14.145Z,3.33
2018-09-19T13:58:43.249Z,3.17
2018-09-19T14:01:12.258Z,2.60
2018-09-19T14:03:41.227Z,2.73
2018-09-19T14:06:13.091Z,2.93
2018-09-19T14:08:42.292Z,2.70
2018-09-19T14:11:11.403Z,3.13
2018-09-19T14:13:41.882Z,3.23
2018-09-19T14:16:11.142Z,3.20
2018-09-19T14:18:40.297Z,3.80
2018-09-19T14:21:09.295Z,3.30
2018-09-19T14:23:38.424Z,2.40
2018-09-19T14:26:07.541Z,3.00
2018-09-19T14:28:37.372Z,2.70
2018-09-19T14:31:06.446Z,3.20
2018-09-19T14:33:35.421Z,2.90
2018-09-19T14:36:05.002Z,3.70
2018-09-19T14:38:34.169Z,3.77
2018-09-19T14:41:06.214Z,3.20
2018-09-19T14:43:35.395Z,3.13
2018-09-19T14:46:04.502Z,3.73
2018-09-19T14:48:33.574Z,3.13
2018-09-19T14:51:03.516Z,3.67
2018-09-19T14:53:32.728Z,2.97
2018-09-19T14:56:01.987Z,3.00
2018-09-19T14:58:30.954Z,3.90
2018-09-19T15:00:59.944Z,3.93
2018-09-19T15:03:28.857Z,3.50
2018-09-19T15:05:59.451Z,3.83
2018-09-19T15:08:28.826Z,3.70
2018-09-19T15:10:57.905Z,4.07
2018-09-19T15:13:27.029Z,3.30
2018-09-19T15:15:56.257Z,3.97
2018-09-19T15:18:25.403Z,3.20
2018-09-19T15:20:54.573Z,4.53
2018-09-19T15:23:23.726Z,3.03
2018-09-19T15:25:53.831Z,3.53
2018-09-19T15:28:22.979Z,3.40
2018-09-19T15:30:51.883Z,3.53
2018-09-19T15:33:21.089Z,3.50
2018-09-19T15:35:50.812Z,3.60
2018-09-19T15:38:19.911Z,3.33
2018-09-19T15:40:48.922Z,4.10
2018-09-19T15:43:17.887Z,3.80
2018-09-19T15:45:47.763Z,4.00
2018-09-19T15:48:16.861Z,3.57
2018-09-19T15:50:45.871Z,4.10
2018-09-19T15:53:14.983Z,3.70
2018-09-19T15:55:43.975Z,3.60
2018-09-19T15:58:13.001Z,3.90
2018-09-19T16:00:42.088Z,4.13
2018-09-19T16:03:11.207Z,3.47
2018-09-19T16:05:40.293Z,3.53
2018-09-19T16:08:09.445Z,3.20
2018-09-19T16:10:38.556Z,3.37
2018-09-19T16:13:07.671Z,3.70
2018-09-19T16:15:36.817Z,3.70
2018-09-19T16:18:05.730Z,3.80
2018-09-19T16:20:34.900Z,3.97
2018-09-19T16:23:04.039Z,3.77
2018-09-19T16:25:33.114Z,3.73
2018-09-19T16:28:02.262Z,3.37
2018-09-19T16:30:31.366Z,3.97
2018-09-19T16:33:00.468Z,3.67
2018-09-19T16:35:29.675Z,4.00
2018-09-19T16:37:58.881Z,4.03
2018-09-19T16:40:28.251Z,3.70
2018-09-19T16:42:57.601Z,3.40
2018-09-19T16:45:26.682Z,3.20
2018-09-19T16:47:55.772Z,2.87
2018-09-19T16:50:25.169Z,3.23
2018-09-19T16:52:56.626Z,3.53
2018-09-19T16:55:25.617Z,4.10
2018-09-19T16:57:54.536Z,3.13
2018-09-19T17:00:23.607Z,2.93
2018-09-19T17:02:52.734Z,3.20
2018-09-19T17:05:21.795Z,4.00
2018-09-19T17:07:50.947Z,4.53
2018-09-19T17:10:21.305Z,4.30
2018-09-19T17:12:50.374Z,5.50
2018-09-19T17:15:19.604Z,4.00
2018-09-19T17:17:48.698Z,4.20
2018-09-19T17:20:17.714Z,3.90
2018-09-19T17:22:47.638Z,3.50
2018-09-19T17:25:16.663Z,3.80
2018-09-19T17:27:45.804Z,3.77
2018-09-19T17:30:14.936Z,3.27
2018-09-19T17:32:44.023Z,3.90
2018-09-19T17:35:13.060Z,3.60
2018-09-19T17:37:42.062Z,3.50
2018-09-19T17:40:11.010Z,3.47
2018-09-19T17:42:40.155Z,4.87
2018-09-19T17:45:09.767Z,3.90
2018-09-19T17:47:38.783Z,4.40
2018-09-19T17:50:08.044Z,3.83
2018-09-19T17:52:37.154Z,4.07
2018-09-19T17:55:06.184Z,4.00
2018-09-19T17:57:35.351Z,4.00
2018-09-19T18:00:05.190Z,3.63
2018-09-19T18:02:34.094Z,3.97
2018-09-19T18:05:03.202Z,4.27
2018-09-19T18:07:32.311Z,4.10
2018-09-19T18:10:01.569Z,4.07
2018-09-19T18:12:30.649Z,4.43
2018-09-19T18:14:59.789Z,4.30
2018-09-19T18:17:28.705Z,4.10
2018-09-19T18:19:57.719Z,4.40
2018-09-19T18:22:26.906Z,4.03
2018-09-19T18:24:56.098Z,3.33
2018-09-19T18:27:25.210Z,4.00
2018-09-19T18:29:54.315Z,3.63
2018-09-19T18:32:23.487Z,3.20
2018-09-19T18:34:52.499Z,4.03
2018-09-19T18:37:21.671Z,3.30
2018-09-19T18:39:51.718Z,3.67
2018-09-19T18:42:20.749Z,3.40
2018-09-19T18:44:49.877Z,3.20
2018-09-19T18:47:20.046Z,3.10
2018-09-19T18:49:49.202Z,3.40
2018-09-19T18:52:18.141Z,3.63
2018-09-19T18:54:47.115Z,5.70
2018-09-19T18:57:16.061Z,9.50
2018-09-19T18:59:45.255Z,12.83
2018-09-19T19:02:15.762Z,13.67
2018-09-19T19:04:44.840Z,17.80
2018-09-19T19:07:13.845Z,17.40
2018-09-19T19:09:43.043Z,17.87
2018-09-19T19:12:12.229Z,21.37
2018-09-19T19:14:41.206Z,21.40
2018-09-19T19:17:10.201Z,21.57
2018-09-19T19:19:39.159Z,21.27
2018-09-19T19:22:08.348Z,22.17
2018-09-19T19:24:37.401Z,23.07
2018-09-19T19:27:06.536Z,22.20
2018-09-19T19:29:35.818Z,22.27
2018-09-19T19:32:07.949Z,23.13
2018-09-19T19:34:37.040Z,22.50
2018-09-19T19:37:06.142Z,22.43
2018-09-19T19:39:35.127Z,21.83
2018-09-19T19:42:04.082Z,20.80
2018-09-19T19:44:33.131Z,22.87
2018-09-19T19:47:07.853Z,23.10
2018-09-19T19:49:37.495Z,23.17
2018-09-19T19:52:06.734Z,23.03
2018-09-19T19:54:35.899Z,22.77
2018-09-19T19:57:04.925Z,22.30
2018-09-19T19:59:34.006Z,20.87
2018-09-19T20:02:02.974Z,20.53
2018-09-19T20:04:32.126Z,20.83
2018-09-19T20:07:01.990Z,19.20
2018-09-19T20:09:31.087Z,18.60
2018-09-19T20:12:00.158Z,18.13
2018-09-19T20:14:29.224Z,16.60
2018-09-19T20:16:58.318Z,17.87
2018-09-19T20:19:27.747Z,17.87
2018-09-19T20:21:56.829Z,18.03
2018-09-19T20:24:25.943Z,18.40
2018-09-19T20:26:55.023Z,17.67
2018-09-19T20:29:23.987Z,18.47
2018-09-19T20:31:52.997Z,15.80
2018-09-19T20:34:23.321Z,16.00
2018-09-19T20:36:52.386Z,15.50
2018-09-19T20:39:21.556Z,15.47
2018-09-19T20:41:50.683Z,14.80
2018-09-19T20:44:19.789Z,15.63
2018-09-19T20:46:48.843Z,15.27
2018-09-19T20:49:17.896Z,14.30
2018-09-19T20:51:46.994Z,13.17
2018-09-19T20:54:16.100Z,12.57
2018-09-19T20:56:45.256Z,12.60
2018-09-19T20:59:15.008Z,11.47
2018-09-19T21:01:44.877Z,10.77
2018-09-19T21:04:13.829Z,11.20
2018-09-19T21:06:42.909Z,11.50
2018-09-19T21:09:12.007Z,11.87
2018-09-19T21:11:41.103Z,11.77
2018-09-19T21:14:10.069Z,11.83
2018-09-19T21:16:39.038Z,11.37
2018-09-19T21:19:08.130Z,11.83
2018-09-19T21:21:37.129Z,11.27
2018-09-19T21:24:06.222Z,10.10
2018-09-19T21:26:35.238Z,10.00
2018-09-19T21:29:04.339Z,10.20
2018-09-19T21:31:33.526Z,11.10
2018-09-19T21:34:02.596Z,10.97
2018-09-19T21:36:32.361Z,9.90
2018-09-19T21:39:01.513Z,9.80
2018-09-19T21:41:30.671Z,9.70
2018-09-19T21:44:00.699Z,9.23
2018-09-19T21:46:29.790Z,9.50
2018-09-19T21:48:58.708Z,9.83
2018-09-19T21:51:27.823Z,9.80
2018-09-19T21:53:56.912Z,10.17
2018-09-19T21:56:26.126Z,9.80
2018-09-19T21:58:56.231Z,9.90
2018-09-19T22:01:30.756Z,9.70
2018-09-19T22:03:59.935Z,10.20
2018-09-19T22:06:29.002Z,9.83
2018-09-19T22:08:58.140Z,10.40
2018-09-19T22:11:27.177Z,9.60
2018-09-19T22:13:56.114Z,8.70
2018-09-19T22:16:25.248Z,8.90
2018-09-19T22:18:54.690Z,10.10
2018-09-19T22:21:23.719Z,9.80
2018-09-19T22:23:52.963Z,10.47
2018-09-19T22:26:22.065Z,9.00
2018-09-19T22:28:51.766Z,10.50
2018-09-19T22:31:21.434Z,10.00
2018-09-19T22:33:50.541Z,8.30
2018-09-19T22:36:19.789Z,8.30
2018-09-19T22:38:48.851Z,8.57
2018-09-19T22:41:18.627Z,8.10
2018-09-19T22:43:48.184Z,10.40
2018-09-19T22:46:17.177Z,9.40
2018-09-19T22:48:46.646Z,9.33
2018-09-19T22:51:15.684Z,9.47
2018-09-19T22:53:44.918Z,9.53
2018-09-19T22:56:13.972Z,9.43
2018-09-19T22:58:43.047Z,10.73
2018-09-19T23:01:12.141Z,9.50
2018-09-19T23:03:41.208Z,9.90
2018-09-19T23:06:10.328Z,9.47
2018-09-19T23:08:40.656Z,10.03
2018-09-19T23:11:10.021Z,9.50
2018-09-19T23:13:39.283Z,8.97
2018-09-19T23:16:08.406Z,9.20
2018-09-19T23:18:37.436Z,9.97
2018-09-19T23:21:06.543Z,9.87
2018-09-19T23:23:35.955Z,8.23
2018-09-19T23:26:05.205Z,9.63
2018-09-19T23:28:34.290Z,8.83
2018-09-19T23:31:03.333Z,8.20
2018-09-19T23:33:33.316Z,8.80
2018-09-19T23:36:02.423Z,8.17
2018-09-19T23:38:31.485Z,8.57
2018-09-19T23:41:01.687Z,8.50
2018-09-19T23:43:31.562Z,7.50
2018-09-19T23:46:00.678Z,8.43
2018-09-19T23:48:30.990Z,6.90
2018-09-19T23:51:00.008Z,7.67
2018-09-19T23:53:29.149Z,8.00
2018-09-19T23:55:59.235Z,7.20
2018-09-19T23:58:28.254Z,7.70
